Latest Weather Observations for Maria Island

IDT60801

Issued at 2:32 pm EDT Friday 19 January 2018 (issued every 30 minutes, with the page automatically refreshed every 10 minutes)

About weather observations | Map of weather stations | Latest weather observations for TAS | Other Formats
Station Details ID: 092124 Name: MARIA ISLAND (POINT LESUEUR) Lat: -42.66 Lon: 148.02 Height: 28.0 m
Data from the previous 72 hours. | See also: Recent months at Maria Island
Date/Time
EDT
Temp
°C
App
Temp
°C
Dew
Point
°C
Rel
Hum
%
Delta-T
°C
Wind Press
QNH
hPa
Press
MSL
hPa
Rain since
9am
mm
Dir  Spd
km/h
Gust
km/h
Spd
kts
Gust
kts
19/02:30pm 21.1 17.5 15.2 69 3.5 SSE 28 33 15 18 1010.1 1010.0 0.0
19/02:00pm 21.3 17.6 14.9 67 3.8 SSE 28 33 15 18 1009.5 1009.4 0.0
19/01:30pm 21.7 18.3 15.8 69 3.5 SSE 28 32 15 17 1009.5 1009.4 0.0
19/01:00pm 22.2 19.6 15.8 67 3.9 E 24 35 13 19 1009.0 1008.9 0.0
19/12:30pm 22.0 19.0 15.8 68 3.7 E 26 32 14 17 1008.1 1008.0 0.0
19/12:00pm 22.0 19.9 16.3 70 3.5 E 22 28 12 15 1008.2 1008.1 0.0
19/11:30am 20.7 17.9 16.3 76 2.7 E 26 35 14 19 1008.2 1008.1 0.0
19/11:00am 20.2 16.5 16.0 77 2.5 E 30 35 16 19 1007.5 1007.4 0.0
19/10:30am 20.5 16.2 15.3 72 3.1 E 32 43 17 23 1007.1 1007.0 0.0
19/10:00am 23.6 22.6 12.3 49 6.5 E 9 24 5 13 1006.8 1006.7 0.0
19/09:30am 24.3 21.4 12.3 47 6.9 WNW 19 22 10 12 1006.3 1006.2 0.0
19/09:00am 23.9 19.6 11.9 47 6.8 WNW 26 30 14 16 1005.7 1005.6 0.0
19/08:30am 24.8 19.1 11.0 42 7.7 W 32 33 17 18 1005.3 1005.2 0.0
19/08:00am 25.6 19.9 11.0 40 8.3 W 32 37 17 20 1004.4 1004.3 0.0
19/07:30am 24.4 21.4 12.0 46 7.1 NNW 19 24 10 13 1004.0 1003.9 0.0
19/07:00am 24.6 20.0 9.7 39 8.2 NNW 24 32 13 17 1003.8 1003.7 0.0
19/06:30am 24.2 20.7 10.8 43 7.5 NNW 20 35 11 19 1003.8 1003.7 0.0
19/06:00am 25.1 19.7 9.4 37 8.6 N 28 39 15 21 1003.3 1003.2 0.0
19/05:30am 24.4 18.1 9.6 39 8.1 NNE 33 41 18 22 1003.4 1003.3 0.0
19/05:00am 23.1 16.9 11.5 48 6.5 N 35 41 19 22 1003.3 1003.2 0.0
19/04:30am 23.2 16.8 10.6 45 7.0 N 35 39 19 21 1003.6 1003.5 0.0
19/04:00am 22.6 15.5 11.0 48 6.5 N 39 44 21 24 1003.8 1003.7 0.0
19/03:30am 22.8 14.8 10.3 45 6.9 N 43 48 23 26 1004.1 1004.0 0.0
19/03:00am 22.3 14.5 11.1 49 6.2 N 43 48 23 26 1004.5 1004.4 0.0
19/02:30am 22.7 14.5 9.8 44 7.0 N 43 48 23 26 1004.8 1004.7 0.0
19/02:00am 22.1 16.5 11.5 51 5.9 N 32 37 17 20 1005.4 1005.3 0.0
19/01:30am 20.6 16.1 13.8 65 3.9 N 30 33 16 18 1005.9 1005.8 0.0
19/01:00am 20.9 18.0 14.1 65 4.0 N 22 28 12 15 1006.4 1006.3 0.0
19/12:30am 21.2 18.7 13.6 62 4.4 N 19 24 10 13 1006.6 1006.5 0.0
19/12:00am 21.7 18.7 13.6 60 4.7 N 22 24 12 13 1007.0 1006.9 0.0
 
Date/Time
EDT
Temp
°C
App
Temp
°C
Dew
Point
°C
Rel
Hum
%
Delta-T
°C
Wind Press
QNH
hPa
Press
MSL
hPa
Rain since
9am
mm
Dir  Spd
km/h
Gust
km/h
Spd
kts
Gust
kts
18/11:30pm 22.2 18.4 13.5 57 5.0 N 26 28 14 15 1007.1 1007.0 0.0
18/11:00pm 20.7 18.5 15.0 70 3.4 N 20 24 11 13 1007.2 1007.1 0.0
18/10:30pm 20.5 18.1 15.5 73 3.0 NNW 22 26 12 14 1007.3 1007.2 0.0
18/10:00pm 20.5 16.2 15.3 72 3.1 N 32 33 17 18 1007.0 1006.9 0.0
18/09:30pm 20.3 15.8 15.3 73 3.0 N 33 35 18 19 1007.1 1007.0 0.0
18/09:00pm 19.6 16.9 15.7 78 2.3 N 24 28 13 15 1007.2 1007.1 0.0
18/08:30pm 19.8 16.0 15.7 77 2.4 N 30 30 16 16 1007.3 1007.2 0.0
18/08:00pm 20.2 15.7 15.4 74 2.8 N 33 37 18 20 1007.4 1007.3 0.0
18/07:30pm 21.1 16.5 15.0 68 3.6 NNW 33 37 18 20 1007.5 1007.4 0.0
18/07:00pm 21.2 16.9 15.3 69 3.5 NNW 32 33 17 18 1007.5 1007.4 0.0
18/06:30pm 21.8 17.6 14.7 64 4.2 N 30 32 16 17 1007.9 1007.8 0.0
18/06:00pm 22.6 19.2 14.7 61 4.7 N 26 30 14 16 1008.3 1008.2 0.0
18/05:30pm 22.9 19.1 14.7 60 4.9 N 28 37 15 20 1008.8 1008.7 0.0
18/05:00pm 24.2 20.8 13.7 52 6.2 N 24 30 13 16 1009.2 1009.1 0.0
18/04:30pm 26.9 25.9 10.2 35 9.3 S 6 6 3 3 1009.6 1009.5 0.0
18/04:00pm 26.7 25.0 7.7 30 10.2 W 6 9 3 5 1010.0 1009.9 0.0
18/03:30pm 26.2 24.6 8.7 33 9.5 SSE 7 9 4 5 1010.4 1010.3 0.0
18/03:00pm 23.2 22.7 12.8 52 6.0 SSE 7 9 4 5 1010.7 1010.6 0.0
18/02:30pm 26.2 24.1 8.2 32 9.7 E 9 15 5 8 1011.0 1010.9 0.0
18/02:00pm 27.0 22.8 7.5 29 10.4 N 19 20 10 11 1011.2 1011.1 0.0
18/01:30pm 25.4 22.0 9.3 36 8.8 N 17 20 9 11 1011.7 1011.6 0.0
18/01:00pm 25.6 22.9 9.0 35 9.0 N 13 17 7 9 1012.1 1012.0 0.0
18/12:30pm 24.3 20.1 9.8 40 7.9 N 22 26 12 14 1012.2 1012.1 0.0
18/12:00pm 24.3 19.7 9.5 39 8.1 N 24 26 13 14 1012.5 1012.4 0.0
18/11:30am 22.8 18.9 10.9 47 6.6 N 22 26 12 14 1012.7 1012.6 0.0
18/11:00am 22.2 17.1 10.7 48 6.3 N 28 33 15 18 1013.0 1012.9 0.0
18/10:30am 21.2 17.9 11.5 54 5.4 N 20 26 11 14 1013.3 1013.2 0.0
18/10:00am 20.3 16.6 10.1 52 5.5 N 20 24 11 13 1013.9 1013.8 0.0
18/09:30am 19.3 16.0 11.6 61 4.2 N 20 26 11 14 1014.0 1013.9 0.0
18/09:00am 18.4 15.0 12.4 68 3.3 NNW 22 28 12 15 1014.2 1014.1 0.0
18/08:30am 17.6 14.8 12.5 72 2.8 NNW 19 22 10 12 1014.5 1014.4 0.0
18/08:00am 17.4 13.9 12.3 72 2.8 N 22 26 12 14 1014.4 1014.3 0.0
18/07:30am 16.8 13.8 12.5 76 2.4 N 20 24 11 13 1014.2 1014.1 0.0
18/07:00am 16.2 13.7 12.4 78 2.1 NNW 17 20 9 11 1014.5 1014.4 0.0
18/06:30am 16.5 12.2 11.9 74 2.5 N 26 30 14 16 1014.2 1014.1 0.0
18/06:00am 16.2 13.6 13.7 85 1.4 N 20 28 11 15 1014.1 1014.0 0.0
18/05:30am 16.3 12.7 14.1 87 1.3 N 26 30 14 16 1014.0 1013.9 0.0
18/05:00am 16.1 12.3 13.6 85 1.4 N 26 28 14 15 1014.0 1013.9 0.0
18/04:30am 15.7 12.6 13.4 86 1.3 NNW 22 24 12 13 1014.2 1014.1 0.0
18/04:00am 15.7 13.0 13.4 86 1.3 NNW 20 24 11 13 1014.7 1014.6 0.0
18/03:30am 15.9 13.4 13.6 86 1.3 NNW 19 22 10 12 1014.8 1014.7 0.0
18/03:00am 16.4 13.7 13.5 83 1.6 N 20 24 11 13 1015.3 1015.2 0.0
18/02:30am 16.3 13.6 13.4 83 1.6 N 20 22 11 12 1015.8 1015.7 0.0
18/02:00am 15.7 14.6 13.2 85 1.4 NNE 11 15 6 8 1016.2 1016.1 0.0
18/01:30am 14.6 13.5 11.9 84 1.5 NNE 9 11 5 6 1016.6 1016.5 0.0
18/01:00am 14.0 13.1 10.8 81 1.7 NE 6 7 3 4 1016.8 1016.7 0.0
18/12:30am 15.0 14.4 11.8 81 1.7 NNE 6 9 3 5 1017.2 1017.1 0.0
18/12:00am 14.9 14.4 12.2 84 1.5 NNW 6 6 3 3 1017.5 1017.4 0.0
 
Date/Time
EDT
Temp
°C
App
Temp
°C
Dew
Point
°C
Rel
Hum
%
Delta-T
°C
Wind Press
QNH
hPa
Press
MSL
hPa
Rain since
9am
mm
Dir  Spd
km/h
Gust
km/h
Spd
kts
Gust
kts
17/11:30pm 14.4 13.9 10.8 79 1.9 ENE 4 6 2 3 1017.5 1017.4 0.0
17/11:00pm 14.6 13.6 11.0 79 1.9 E 7 9 4 5 1018.0 1017.9 0.0
17/10:30pm 14.9 14.0 11.5 80 1.8 ESE 7 7 4 4 1018.2 1018.1 0.0
17/10:00pm 15.0 14.6 11.2 78 2.0 ENE 4 6 2 3 1018.1 1018.0 0.0
17/09:30pm 15.4 14.1 11.2 76 2.2 ENE 9 13 5 7 1018.0 1017.9 0.0
17/09:00pm 16.2 14.2 11.6 74 2.5 E 13 17 7 9 1018.0 1017.9 0.0
17/08:30pm 16.3 14.4 11.9 75 2.4 E 13 19 7 10 1017.9 1017.8 0.0
17/08:00pm 16.6 13.9 11.7 73 2.7 ESE 17 22 9 12 1017.8 1017.7 0.0
17/07:30pm 16.6 13.4 11.3 71 2.9 ESE 19 24 10 13 1017.7 1017.6 0.0
17/07:00pm 16.9 13.7 11.4 70 3.0 ESE 19 26 10 14 1017.7 1017.6 0.0
17/06:30pm 17.2 13.8 11.2 68 3.2 ESE 20 26 11 14 1017.7 1017.6 0.0
17/06:00pm 17.8 14.5 11.6 67 3.4 ESE 20 26 11 14 1017.6 1017.5 0.0
17/05:30pm 17.7 14.0 11.5 67 3.4 ESE 22 28 12 15 1017.7 1017.6 0.0
17/05:00pm 18.4 14.4 11.9 66 3.6 ESE 24 30 13 16 1017.6 1017.5 0.0
17/04:30pm 17.9 14.3 11.7 67 3.4 ESE 22 28 12 15 1017.7 1017.6 0.0
17/04:00pm 18.1 14.1 11.7 66 3.5 ESE 24 30 13 16 1017.7 1017.6 0.0
17/03:30pm 17.8 13.7 11.6 67 3.4 ESE 24 32 13 17 1017.6 1017.5 0.0
17/03:00pm 18.6 14.3 12.1 66 3.6 E 26 32 14 17 1017.8 1017.7 0.0
17/02:30pm 18.1 13.6 11.4 65 3.7 E 26 33 14 18 1017.9 1017.8 0.0
17/02:00pm 18.2 13.7 11.3 64 3.8 E 26 33 14 18 1017.9 1017.8 0.0
17/01:30pm 18.2 13.3 11.3 64 3.8 E 28 32 15 17 1018.3 1018.2 0.0
17/01:00pm 18.4 14.4 11.9 66 3.6 E 24 32 13 17 1018.4 1018.3 0.0
17/12:30pm 18.5 14.7 11.3 63 3.9 E 22 28 12 15 1018.5 1018.4 0.0
17/12:00pm 18.4 15.3 11.5 64 3.8 E 19 22 10 12 1018.8 1018.8 0.0
17/11:30am 18.9 16.8 11.2 61 4.2 ESE 13 19 7 10 1019.0 1019.0 0.0
17/11:00am 18.6 17.0 11.4 63 3.9 S 11 13 6 7 1019.3 1019.3 0.0
17/10:30am 17.3 14.1 10.0 62 3.9 S 17 19 9 10 1019.6 1019.6 0.0
17/10:00am 17.0 14.2 11.3 69 3.1 S 17 20 9 11 1019.7 1019.7 0.0
17/09:30am 16.1 14.5 11.7 75 2.4 S 11 15 6 8 1019.7 1019.7 0.0
17/09:00am 15.7 14.8 10.7 72 2.6 SW 6 7 3 4 1020.1 1020.1 0.0
17/08:30am 15.0 14.5 10.8 76 2.2 NNE 4 6 2 3 1020.0 1020.0 0.0
17/08:00am 14.2 13.7 10.8 80 1.8 NW 4 6 2 3 1019.9 1019.9 0.0
17/07:30am 13.8 13.4 11.0 83 1.5 NNW 4 6 2 3 1019.8 1019.8 0.0
17/07:00am 13.2 13.6 11.3 88 1.0 CALM 0 0 0 0 1019.7 1019.7 0.0
17/06:30am 11.8 11.1 9.9 88 1.0 N 4 6 2 3 1019.5 1019.5 0.0
17/06:00am 12.3 12.1 10.4 88 1.0 NNE 2 4 1 2 1019.5 1019.5 0.0
17/05:30am 11.8 11.0 9.5 86 1.2 NNE 4 6 2 3 1019.1 1019.1 0.0
17/05:00am 12.8 11.8 10.2 84 1.3 NNW 6 6 3 3 1019.0 1019.0 0.0
17/04:30am 12.6 11.0 10.3 86 1.2 N 9 11 5 6 1019.1 1019.1 0.0
17/04:00am 11.7 10.4 9.9 89 0.9 NNE 7 9 4 5 1019.2 1019.2 0.0
17/03:30am 12.8 11.7 9.8 82 1.5 NW 6 7 3 4 1019.8 1019.8 0.0
17/03:00am 12.6 12.7 10.1 85 1.3 CALM 0 6 0 3 1020.1 1020.1 0.0
17/02:30am 12.6 11.9 10.0 84 1.3 NNW 4 6 2 3 1020.4 1020.4 0.0
17/02:00am 12.6 12.3 10.1 85 1.3 NW 2 6 1 3 1021.0 1021.0 0.0
17/01:30am 12.9 11.7 10.3 84 1.3 W 7 7 4 4 1021.6 1021.6 0.0
17/01:00am 13.0 11.9 9.8 81 1.6 WNW 6 7 3 4 1022.0 1022.0 0.0
17/12:30am 12.6 11.3 10.0 84 1.3 WNW 7 9 4 5 1022.3 1022.3 0.0
17/12:00am 13.6 13.0 10.4 81 1.7 N 4 7 2 4 1022.8 1022.8 0.0
 
Date/Time
EDT
Temp
°C
App
Temp
°C
Dew
Point
°C
Rel
Hum
%
Delta-T
°C
Wind Press
QNH
hPa
Press
MSL
hPa
Rain since
9am
mm
Dir  Spd
km/h
Gust
km/h
Spd
kts
Gust
kts
16/11:30pm 12.9 12.0 9.2 78 1.9 NE 4 6 2 3 1023.1 1023.1 0.0
16/11:00pm 14.0 13.9 9.4 74 2.3 CALM 0 4 0 2 1023.5 1023.5 0.0
16/10:30pm 14.1 14.0 9.3 73 2.5 CALM 0 0 0 0 1023.6 1023.6 0.0
16/10:00pm 13.9 12.4 9.1 73 2.4 ESE 7 9 4 5 1023.5 1023.5 0.0
16/09:30pm 14.1 12.2 9.1 72 2.5 SE 9 11 5 6 1023.3 1023.3 0.0
16/09:00pm 14.3 12.4 8.9 70 2.7 SE 9 13 5 7 1023.2 1023.2 0.0
16/08:30pm 14.7 12.0 8.9 68 3.0 SE 13 17 7 9 1023.1 1023.1 0.0
16/08:00pm 15.0 11.5 8.7 66 3.2 ESE 17 20 9 11 1023.0 1023.0 0.0
16/07:30pm 15.4 11.9 8.9 65 3.3 ESE 17 22 9 12 1022.7 1022.7 0.0
16/07:00pm 15.6 11.7 8.8 64 3.5 ESE 19 24 10 13 1022.7 1022.7 0.0
16/06:30pm 16.0 12.0 9.0 63 3.6 ESE 20 24 11 13 1022.8 1022.8 0.0
16/06:00pm 15.8 11.2 8.3 61 3.8 E 22 28 12 15 1022.9 1022.9 0.0
16/05:30pm 16.3 12.2 8.8 61 3.8 E 20 28 11 15 1023.0 1023.0 0.0
16/05:00pm 16.1 11.5 8.3 60 3.9 E 22 26 12 14 1023.2 1023.2 0.0
16/04:30pm 16.2 11.2 8.2 59 4.1 E 24 30 13 16 1023.2 1023.2 0.0
16/04:00pm 16.6 12.4 8.3 58 4.2 ESE 20 28 11 15 1023.4 1023.4 0.0
16/03:30pm 16.6 12.4 8.1 57 4.3 E 20 24 11 13 1023.2 1023.2 0.0
16/03:00pm 16.7 12.4 7.9 56 4.4 E 20 26 11 14 1023.5 1023.5 0.0

Other Formats:

Comma delimited format used in spreadsheet applications
http://www.bom.gov.au/fwo/IDT60801/IDT60801.95988.axf

JavaScript Object Notation format (JSON) in row-major order
http://www.bom.gov.au/fwo/IDT60801/IDT60801.95988.json